sensor_id;sensor_type;location;lat;lon;timestamp;temperature;humidity
9998;DHT22;5038;53.064;8.624;2024-02-14T00:00:08;6.90;99.90
9998;DHT22;5038;53.064;8.624;2024-02-14T00:02:44;6.90;99.90
9998;DHT22;5038;53.064;8.624;2024-02-14T00:05:14;6.90;99.90
9998;DHT22;5038;53.064;8.624;2024-02-14T00:07:43;6.90;99.90
9998;DHT22;5038;53.064;8.624;2024-02-14T00:10:12;6.90;99.90
9998;DHT22;5038;53.064;8.624;2024-02-14T00:12:40;6.90;99.90
9998;DHT22;5038;53.064;8.624;2024-02-14T00:15:09;6.90;99.90
9998;DHT22;5038;53.064;8.624;2024-02-14T00:17:37;6.90;99.90
9998;DHT22;5038;53.064;8.624;2024-02-14T00:20:07;6.90;99.90
9998;DHT22;5038;53.064;8.624;2024-02-14T00:22:39;7.00;99.90
9998;DHT22;5038;53.064;8.624;2024-02-14T00:25:08;7.00;99.90
9998;DHT22;5038;53.064;8.624;2024-02-14T00:27:37;6.90;99.90
9998;DHT22;5038;53.064;8.624;2024-02-14T00:30:06;6.90;99.90
9998;DHT22;5038;53.064;8.624;2024-02-14T00:32:35;7.00;99.90
9998;DHT22;5038;53.064;8.624;2024-02-14T00:35:04;6.90;99.90
9998;DHT22;5038;53.064;8.624;2024-02-14T00:37:32;6.90;99.90
9998;DHT22;5038;53.064;8.624;2024-02-14T00:40:02;6.90;99.90
9998;DHT22;5038;53.064;8.624;2024-02-14T00:42:31;6.90;99.90
9998;DHT22;5038;53.064;8.624;2024-02-14T00:44:59;6.90;99.90
9998;DHT22;5038;53.064;8.624;2024-02-14T00:47:28;6.90;99.90
9998;DHT22;5038;53.064;8.624;2024-02-14T00:49:57;6.90;99.90
9998;DHT22;5038;53.064;8.624;2024-02-14T00:52:25;6.90;99.90
9998;DHT22;5038;53.064;8.624;2024-02-14T00:54:53;6.90;99.90
9998;DHT22;5038;53.064;8.624;2024-02-14T00:57:24;6.90;99.90
9998;DHT22;5038;53.064;8.624;2024-02-14T00:59:53;6.90;99.90
9998;DHT22;5038;53.064;8.624;2024-02-14T01:02:23;7.00;99.90
9998;DHT22;5038;53.064;8.624;2024-02-14T01:04:53;7.00;99.90
9998;DHT22;5038;53.064;8.624;2024-02-14T01:07:21;7.00;99.90
9998;DHT22;5038;53.064;8.624;2024-02-14T01:09:49;6.90;99.90
9998;DHT22;5038;53.064;8.624;2024-02-14T01:12:18;7.00;99.90
9998;DHT22;5038;53.064;8.624;2024-02-14T01:14:48;6.90;99.90
9998;DHT22;5038;53.064;8.624;2024-02-14T01:17:17;6.90;99.90
9998;DHT22;5038;53.064;8.624;2024-02-14T01:19:45;7.00;99.90
9998;DHT22;5038;53.064;8.624;2024-02-14T01:22:13;7.00;99.90
9998;DHT22;5038;53.064;8.624;2024-02-14T01:24:43;6.90;99.90
9998;DHT22;5038;53.064;8.624;2024-02-14T01:27:11;7.00;99.90
9998;DHT22;5038;53.064;8.624;2024-02-14T01:29:40;6.90;99.90
9998;DHT22;5038;53.064;8.624;2024-02-14T01:32:09;7.00;99.90
9998;DHT22;5038;53.064;8.624;2024-02-14T01:34:38;7.00;99.90
9998;DHT22;5038;53.064;8.624;2024-02-14T01:37:06;6.90;99.90
9998;DHT22;5038;53.064;8.624;2024-02-14T01:39:36;7.00;99.90
9998;DHT22;5038;53.064;8.624;2024-02-14T01:42:05;6.90;99.90
9998;DHT22;5038;53.064;8.624;2024-02-14T01:44:34;6.90;99.90
9998;DHT22;5038;53.064;8.624;2024-02-14T01:47:04;6.90;99.90
9998;DHT22;5038;53.064;8.624;2024-02-14T01:49:35;7.00;99.90
9998;DHT22;5038;53.064;8.624;2024-02-14T01:52:04;7.00;99.90
9998;DHT22;5038;53.064;8.624;2024-02-14T01:54:33;7.00;99.90
9998;DHT22;5038;53.064;8.624;2024-02-14T01:57:03;6.90;99.90
9998;DHT22;5038;53.064;8.624;2024-02-14T01:59:33;6.90;99.90
9998;DHT22;5038;53.064;8.624;2024-02-14T02:02:03;7.00;99.90
9998;DHT22;5038;53.064;8.624;2024-02-14T02:04:36;7.00;99.90
9998;DHT22;5038;53.064;8.624;2024-02-14T02:07:05;7.00;99.90
9998;DHT22;5038;53.064;8.624;2024-02-14T02:09:33;7.00;99.90
9998;DHT22;5038;53.064;8.624;2024-02-14T02:12:01;7.00;99.90
9998;DHT22;5038;53.064;8.624;2024-02-14T02:14:35;7.00;99.90
9998;DHT22;5038;53.064;8.624;2024-02-14T02:17:04;7.00;99.90
9998;DHT22;5038;53.064;8.624;2024-02-14T02:19:36;7.00;99.90
9998;DHT22;5038;53.064;8.624;2024-02-14T02:22:04;7.00;99.90
9998;DHT22;5038;53.064;8.624;2024-02-14T02:24:34;7.00;99.90
9998;DHT22;5038;53.064;8.624;2024-02-14T02:27:03;7.00;99.90
9998;DHT22;5038;53.064;8.624;2024-02-14T02:29:31;7.00;99.90
9998;DHT22;5038;53.064;8.624;2024-02-14T02:32:00;7.00;99.90
9998;DHT22;5038;53.064;8.624;2024-02-14T02:34:28;7.00;99.90
9998;DHT22;5038;53.064;8.624;2024-02-14T02:36:57;7.00;99.90
9998;DHT22;5038;53.064;8.624;2024-02-14T02:39:25;7.00;99.90
9998;DHT22;5038;53.064;8.624;2024-02-14T02:41:54;7.00;99.90
9998;DHT22;5038;53.064;8.624;2024-02-14T02:44:24;7.00;99.90
9998;DHT22;5038;53.064;8.624;2024-02-14T02:46:54;7.00;99.90
9998;DHT22;5038;53.064;8.624;2024-02-14T02:49:22;7.00;99.90
9998;DHT22;5038;53.064;8.624;2024-02-14T02:51:50;7.00;99.90
9998;DHT22;5038;53.064;8.624;2024-02-14T02:54:19;7.00;99.90
9998;DHT22;5038;53.064;8.624;2024-02-14T02:56:49;7.00;99.90
9998;DHT22;5038;53.064;8.624;2024-02-14T02:59:19;7.00;99.90
9998;DHT22;5038;53.064;8.624;2024-02-14T03:01:47;7.00;99.90
9998;DHT22;5038;53.064;8.624;2024-02-14T03:04:16;7.00;99.90
9998;DHT22;5038;53.064;8.624;2024-02-14T03:06:46;7.00;99.90
9998;DHT22;5038;53.064;8.624;2024-02-14T03:09:14;7.10;99.90
9998;DHT22;5038;53.064;8.624;2024-02-14T03:11:46;7.00;99.90
9998;DHT22;5038;53.064;8.624;2024-02-14T03:14:14;7.00;99.90
9998;DHT22;5038;53.064;8.624;2024-02-14T03:16:44;7.00;99.90
9998;DHT22;5038;53.064;8.624;2024-02-14T03:19:13;7.00;99.90
9998;DHT22;5038;53.064;8.624;2024-02-14T03:21:41;7.00;99.90
9998;DHT22;5038;53.064;8.624;2024-02-14T03:24:11;7.00;99.90
9998;DHT22;5038;53.064;8.624;2024-02-14T03:26:39;7.00;99.90
9998;DHT22;5038;53.064;8.624;2024-02-14T03:29:09;7.00;99.90
9998;DHT22;5038;53.064;8.624;2024-02-14T03:31:37;7.10;99.90
9998;DHT22;5038;53.064;8.624;2024-02-14T03:34:06;7.00;99.90
9998;DHT22;5038;53.064;8.624;2024-02-14T03:36:36;7.00;99.90
9998;DHT22;5038;53.064;8.624;2024-02-14T03:39:05;7.00;99.90
9998;DHT22;5038;53.064;8.624;2024-02-14T03:41:33;7.00;99.90
9998;DHT22;5038;53.064;8.624;2024-02-14T03:44:02;7.10;99.90
9998;DHT22;5038;53.064;8.624;2024-02-14T03:46:31;7.10;99.90
9998;DHT22;5038;53.064;8.624;2024-02-14T03:49:02;7.10;99.90
9998;DHT22;5038;53.064;8.624;2024-02-14T03:51:32;7.10;99.90
9998;DHT22;5038;53.064;8.624;2024-02-14T03:54:00;7.10;99.90
9998;DHT22;5038;53.064;8.624;2024-02-14T03:56:28;7.10;99.90
9998;DHT22;5038;53.064;8.624;2024-02-14T03:58:59;7.10;99.90
9998;DHT22;5038;53.064;8.624;2024-02-14T04:01:28;7.10;99.90
9998;DHT22;5038;53.064;8.624;2024-02-14T04:03:58;7.10;99.90
9998;DHT22;5038;53.064;8.624;2024-02-14T04:06:26;7.10;99.90
9998;DHT22;5038;53.064;8.624;2024-02-14T04:08:56;7.10;99.90
9998;DHT22;5038;53.064;8.624;2024-02-14T04:11:24;7.10;99.90
9998;DHT22;5038;53.064;8.624;2024-02-14T04:13:52;7.10;99.90
9998;DHT22;5038;53.064;8.624;2024-02-14T04:16:21;7.20;99.90
9998;DHT22;5038;53.064;8.624;2024-02-14T04:18:49;7.10;99.90
9998;DHT22;5038;53.064;8.624;2024-02-14T04:21:17;7.20;99.90
9998;DHT22;5038;53.064;8.624;2024-02-14T04:23:46;7.20;99.90
9998;DHT22;5038;53.064;8.624;2024-02-14T04:26:20;7.20;99.90
9998;DHT22;5038;53.064;8.624;2024-02-14T04:28:48;7.20;99.90
9998;DHT22;5038;53.064;8.624;2024-02-14T04:31:16;7.20;99.90
9998;DHT22;5038;53.064;8.624;2024-02-14T04:33:44;7.20;99.90
9998;DHT22;5038;53.064;8.624;2024-02-14T04:36:18;7.20;99.90
9998;DHT22;5038;53.064;8.624;2024-02-14T04:38:47;7.20;99.90
9998;DHT22;5038;53.064;8.624;2024-02-14T04:41:15;7.30;99.90
9998;DHT22;5038;53.064;8.624;2024-02-14T04:43:45;7.20;99.90
9998;DHT22;5038;53.064;8.624;2024-02-14T04:46:13;7.30;99.90
9998;DHT22;5038;53.064;8.624;2024-02-14T04:48:41;7.30;99.90
9998;DHT22;5038;53.064;8.624;2024-02-14T04:51:10;7.30;99.90
9998;DHT22;5038;53.064;8.624;2024-02-14T04:53:38;7.30;99.90
9998;DHT22;5038;53.064;8.624;2024-02-14T04:56:06;7.30;99.90
9998;DHT22;5038;53.064;8.624;2024-02-14T04:58:35;7.30;99.90
9998;DHT22;5038;53.064;8.624;2024-02-14T05:01:05;7.30;99.90
9998;DHT22;5038;53.064;8.624;2024-02-14T05:03:34;7.30;99.90
9998;DHT22;5038;53.064;8.624;2024-02-14T05:06:04;7.40;99.90
9998;DHT22;5038;53.064;8.624;2024-02-14T05:08:32;7.40;99.90
9998;DHT22;5038;53.064;8.624;2024-02-14T05:11:01;7.40;99.90
9998;DHT22;5038;53.064;8.624;2024-02-14T05:13:30;7.40;99.90
9998;DHT22;5038;53.064;8.624;2024-02-14T05:16:01;7.40;99.90
9998;DHT22;5038;53.064;8.624;2024-02-14T05:18:31;7.40;99.90
9998;DHT22;5038;53.064;8.624;2024-02-14T05:20:59;7.40;99.90
9998;DHT22;5038;53.064;8.624;2024-02-14T05:23:28;7.40;99.90
9998;DHT22;5038;53.064;8.624;2024-02-14T05:25:57;7.50;99.90
9998;DHT22;5038;53.064;8.624;2024-02-14T05:28:25;7.40;99.90
9998;DHT22;5038;53.064;8.624;2024-02-14T05:30:53;7.50;99.90
9998;DHT22;5038;53.064;8.624;2024-02-14T05:33:21;7.50;99.90
9998;DHT22;5038;53.064;8.624;2024-02-14T05:35:52;7.50;99.90
9998;DHT22;5038;53.064;8.624;2024-02-14T05:38:20;7.50;99.90
9998;DHT22;5038;53.064;8.624;2024-02-14T05:40:48;7.60;99.90
9998;DHT22;5038;53.064;8.624;2024-02-14T05:43:17;7.50;99.90
9998;DHT22;5038;53.064;8.624;2024-02-14T05:45:45;7.60;99.90
9998;DHT22;5038;53.064;8.624;2024-02-14T05:48:14;7.60;99.90
9998;DHT22;5038;53.064;8.624;2024-02-14T05:50:42;7.60;99.90
9998;DHT22;5038;53.064;8.624;2024-02-14T05:53:12;7.60;99.90
9998;DHT22;5038;53.064;8.624;2024-02-14T05:55:40;7.60;99.90
9998;DHT22;5038;53.064;8.624;2024-02-14T05:58:08;7.70;99.90
9998;DHT22;5038;53.064;8.624;2024-02-14T06:00:36;7.70;99.90
9998;DHT22;5038;53.064;8.624;2024-02-14T06:03:05;7.70;99.90
9998;DHT22;5038;53.064;8.624;2024-02-14T06:05:34;7.70;99.90
9998;DHT22;5038;53.064;8.624;2024-02-14T06:08:03;7.70;99.90
9998;DHT22;5038;53.064;8.624;2024-02-14T06:10:32;7.80;99.90
9998;DHT22;5038;53.064;8.624;2024-02-14T06:13:02;7.80;99.90
9998;DHT22;5038;53.064;8.624;2024-02-14T06:15:30;7.80;99.90
9998;DHT22;5038;53.064;8.624;2024-02-14T06:17:59;7.90;99.90
9998;DHT22;5038;53.064;8.624;2024-02-14T06:20:27;7.90;99.90
9998;DHT22;5038;53.064;8.624;2024-02-14T06:22:55;7.90;99.90
9998;DHT22;5038;53.064;8.624;2024-02-14T06:25:33;7.90;99.90
9998;DHT22;5038;53.064;8.624;2024-02-14T06:28:01;8.00;99.90
9998;DHT22;5038;53.064;8.624;2024-02-14T06:30:29;8.00;99.90
9998;DHT22;5038;53.064;8.624;2024-02-14T06:33:00;8.00;99.90
9998;DHT22;5038;53.064;8.624;2024-02-14T06:35:30;8.00;99.90
9998;DHT22;5038;53.064;8.624;2024-02-14T06:37:58;8.00;99.90
9998;DHT22;5038;53.064;8.624;2024-02-14T06:40:32;8.00;99.90
9998;DHT22;5038;53.064;8.624;2024-02-14T06:43:01;8.10;99.90
9998;DHT22;5038;53.064;8.624;2024-02-14T06:45:29;8.10;99.90
9998;DHT22;5038;53.064;8.624;2024-02-14T06:47:58;8.20;99.90
9998;DHT22;5038;53.064;8.624;2024-02-14T06:50:26;8.20;99.90
9998;DHT22;5038;53.064;8.624;2024-02-14T06:52:56;8.20;99.90
9998;DHT22;5038;53.064;8.624;2024-02-14T06:55:26;8.20;99.90
9998;DHT22;5038;53.064;8.624;2024-02-14T06:57:56;8.30;99.90
9998;DHT22;5038;53.064;8.624;2024-02-14T07:00:24;8.30;99.90
9998;DHT22;5038;53.064;8.624;2024-02-14T07:02:53;8.30;99.90
9998;DHT22;5038;53.064;8.624;2024-02-14T07:05:21;8.30;99.90
9998;DHT22;5038;53.064;8.624;2024-02-14T07:07:50;8.40;99.90
9998;DHT22;5038;53.064;8.624;2024-02-14T07:10:18;8.40;99.90
9998;DHT22;5038;53.064;8.624;2024-02-14T07:12:46;8.40;99.90
9998;DHT22;5038;53.064;8.624;2024-02-14T07:15:16;8.40;99.90
9998;DHT22;5038;53.064;8.624;2024-02-14T07:17:45;8.50;99.90
9998;DHT22;5038;53.064;8.624;2024-02-14T07:20:14;8.50;99.90
9998;DHT22;5038;53.064;8.624;2024-02-14T07:22:44;8.50;99.90
9998;DHT22;5038;53.064;8.624;2024-02-14T07:25:14;8.60;99.90
9998;DHT22;5038;53.064;8.624;2024-02-14T07:27:42;8.60;99.90
9998;DHT22;5038;53.064;8.624;2024-02-14T07:30:14;8.60;99.90
9998;DHT22;5038;53.064;8.624;2024-02-14T07:32:43;8.60;99.90
9998;DHT22;5038;53.064;8.624;2024-02-14T07:35:11;8.70;99.90
9998;DHT22;5038;53.064;8.624;2024-02-14T07:37:40;8.70;99.90
9998;DHT22;5038;53.064;8.624;2024-02-14T07:40:10;8.80;99.90
9998;DHT22;5038;53.064;8.624;2024-02-14T07:42:42;8.80;99.90
9998;DHT22;5038;53.064;8.624;2024-02-14T07:45:10;8.80;99.90
9998;DHT22;5038;53.064;8.624;2024-02-14T07:47:41;8.80;99.90
9998;DHT22;5038;53.064;8.624;2024-02-14T07:50:09;8.90;99.90
9998;DHT22;5038;53.064;8.624;2024-02-14T07:52:41;8.90;99.90
9998;DHT22;5038;53.064;8.624;2024-02-14T07:55:10;8.90;99.90
9998;DHT22;5038;53.064;8.624;2024-02-14T07:57:39;9.00;99.90
9998;DHT22;5038;53.064;8.624;2024-02-14T08:00:08;9.00;99.90
9998;DHT22;5038;53.064;8.624;2024-02-14T08:02:37;9.00;99.90
9998;DHT22;5038;53.064;8.624;2024-02-14T08:05:07;9.10;99.90
9998;DHT22;5038;53.064;8.624;2024-02-14T08:07:36;9.10;99.90
9998;DHT22;5038;53.064;8.624;2024-02-14T08:10:04;9.10;99.90
9998;DHT22;5038;53.064;8.624;2024-02-14T08:12:33;9.20;99.90
9998;DHT22;5038;53.064;8.624;2024-02-14T08:15:01;9.20;99.90
9998;DHT22;5038;53.064;8.624;2024-02-14T08:17:31;9.20;99.90
9998;DHT22;5038;53.064;8.624;2024-02-14T08:20:00;9.20;99.90
9998;DHT22;5038;53.064;8.624;2024-02-14T08:22:32;9.20;99.90
9998;DHT22;5038;53.064;8.624;2024-02-14T08:25:00;9.30;99.90
9998;DHT22;5038;53.064;8.624;2024-02-14T08:27:28;9.30;99.90
9998;DHT22;5038;53.064;8.624;2024-02-14T08:29:58;9.40;99.90
9998;DHT22;5038;53.064;8.624;2024-02-14T08:32:26;9.40;99.90
9998;DHT22;5038;53.064;8.624;2024-02-14T08:34:55;9.40;99.90
9998;DHT22;5038;53.064;8.624;2024-02-14T08:37:24;9.40;99.90
9998;DHT22;5038;53.064;8.624;2024-02-14T08:39:54;9.40;99.90
9998;DHT22;5038;53.064;8.624;2024-02-14T08:42:22;9.50;99.90
9998;DHT22;5038;53.064;8.624;2024-02-14T08:44:50;9.50;99.90
9998;DHT22;5038;53.064;8.624;2024-02-14T08:47:19;9.50;99.90
9998;DHT22;5038;53.064;8.624;2024-02-14T08:49:47;9.50;99.90
9998;DHT22;5038;53.064;8.624;2024-02-14T08:52:15;9.60;99.90
9998;DHT22;5038;53.064;8.624;2024-02-14T08:54:43;9.60;99.90
9998;DHT22;5038;53.064;8.624;2024-02-14T08:57:13;9.60;99.90
9998;DHT22;5038;53.064;8.624;2024-02-14T08:59:41;9.70;99.90
9998;DHT22;5038;53.064;8.624;2024-02-14T09:02:13;9.70;99.90
9998;DHT22;5038;53.064;8.624;2024-02-14T09:04:43;9.70;99.90
9998;DHT22;5038;53.064;8.624;2024-02-14T09:07:12;9.80;99.90
9998;DHT22;5038;53.064;8.624;2024-02-14T09:09:40;9.80;99.90
9998;DHT22;5038;53.064;8.624;2024-02-14T09:12:08;9.80;99.90
9998;DHT22;5038;53.064;8.624;2024-02-14T09:14:38;9.90;99.90
9998;DHT22;5038;53.064;8.624;2024-02-14T09:17:06;9.90;99.90
9998;DHT22;5038;53.064;8.624;2024-02-14T09:19:35;10.00;99.90
9998;DHT22;5038;53.064;8.624;2024-02-14T09:22:04;10.00;99.90
9998;DHT22;5038;53.064;8.624;2024-02-14T09:24:33;10.00;99.90
9998;DHT22;5038;53.064;8.624;2024-02-14T09:27:01;10.00;99.90
9998;DHT22;5038;53.064;8.624;2024-02-14T09:29:32;10.10;99.90
9998;DHT22;5038;53.064;8.624;2024-02-14T09:32:03;10.10;99.90
9998;DHT22;5038;53.064;8.624;2024-02-14T09:34:31;10.10;99.90
9998;DHT22;5038;53.064;8.624;2024-02-14T09:37:00;10.20;99.90
9998;DHT22;5038;53.064;8.624;2024-02-14T09:39:27;10.20;99.90
9998;DHT22;5038;53.064;8.624;2024-02-14T09:41:58;10.20;99.90
9998;DHT22;5038;53.064;8.624;2024-02-14T09:44:28;10.30;99.90
9998;DHT22;5038;53.064;8.624;2024-02-14T09:46:57;10.30;99.90
9998;DHT22;5038;53.064;8.624;2024-02-14T09:49:28;10.30;99.90
9998;DHT22;5038;53.064;8.624;2024-02-14T09:51:57;10.40;99.90
9998;DHT22;5038;53.064;8.624;2024-02-14T09:54:26;10.40;99.90
9998;DHT22;5038;53.064;8.624;2024-02-14T09:56:55;10.40;99.90
9998;DHT22;5038;53.064;8.624;2024-02-14T09:59:24;10.50;99.90
9998;DHT22;5038;53.064;8.624;2024-02-14T10:01:52;10.50;99.90
9998;DHT22;5038;53.064;8.624;2024-02-14T10:04:21;10.50;99.90
9998;DHT22;5038;53.064;8.624;2024-02-14T10:06:54;10.60;99.90
9998;DHT22;5038;53.064;8.624;2024-02-14T10:09:22;10.60;99.90
9998;DHT22;5038;53.064;8.624;2024-02-14T10:11:52;10.60;99.90
9998;DHT22;5038;53.064;8.624;2024-02-14T10:14:23;10.70;99.90
9998;DHT22;5038;53.064;8.624;2024-02-14T10:16:51;10.70;99.90
9998;DHT22;5038;53.064;8.624;2024-02-14T10:19:19;10.70;99.90
9998;DHT22;5038;53.064;8.624;2024-02-14T10:21:56;10.80;99.90
9998;DHT22;5038;53.064;8.624;2024-02-14T10:24:26;10.80;99.90
9998;DHT22;5038;53.064;8.624;2024-02-14T10:26:54;10.80;99.90
9998;DHT22;5038;53.064;8.624;2024-02-14T10:29:25;10.80;99.90
9998;DHT22;5038;53.064;8.624;2024-02-14T10:31:53;10.90;99.90
9998;DHT22;5038;53.064;8.624;2024-02-14T10:34:25;10.90;99.90
9998;DHT22;5038;53.064;8.624;2024-02-14T10:36:57;10.90;99.90
9998;DHT22;5038;53.064;8.624;2024-02-14T10:39:29;10.90;99.90
9998;DHT22;5038;53.064;8.624;2024-02-14T10:41:57;10.90;99.90
9998;DHT22;5038;53.064;8.624;2024-02-14T10:44:27;10.90;99.90
9998;DHT22;5038;53.064;8.624;2024-02-14T10:46:55;10.90;99.90
9998;DHT22;5038;53.064;8.624;2024-02-14T10:49:28;11.00;99.90
9998;DHT22;5038;53.064;8.624;2024-02-14T10:51:59;11.00;99.90
9998;DHT22;5038;53.064;8.624;2024-02-14T10:54:31;11.00;99.90
9998;DHT22;5038;53.064;8.624;2024-02-14T10:57:05;11.00;99.90
9998;DHT22;5038;53.064;8.624;2024-02-14T10:59:41;11.00;99.90
9998;DHT22;5038;53.064;8.624;2024-02-14T11:02:11;11.00;99.90
9998;DHT22;5038;53.064;8.624;2024-02-14T11:04:40;11.00;99.90
9998;DHT22;5038;53.064;8.624;2024-02-14T11:07:10;11.00;99.90
9998;DHT22;5038;53.064;8.624;2024-02-14T11:09:40;11.00;99.90
9998;DHT22;5038;53.064;8.624;2024-02-14T11:12:10;11.00;99.90
9998;DHT22;5038;53.064;8.624;2024-02-14T11:14:42;11.00;99.90
9998;DHT22;5038;53.064;8.624;2024-02-14T11:17:13;11.00;99.90
9998;DHT22;5038;53.064;8.624;2024-02-14T11:19:41;11.10;99.90
9998;DHT22;5038;53.064;8.624;2024-02-14T11:22:12;11.10;99.90
9998;DHT22;5038;53.064;8.624;2024-02-14T11:24:40;11.10;99.90
9998;DHT22;5038;53.064;8.624;2024-02-14T11:27:10;11.10;99.90
9998;DHT22;5038;53.064;8.624;2024-02-14T11:29:59;11.10;99.90
9998;DHT22;5038;53.064;8.624;2024-02-14T11:32:28;11.10;99.90
9998;DHT22;5038;53.064;8.624;2024-02-14T11:34:57;11.10;99.90
9998;DHT22;5038;53.064;8.624;2024-02-14T11:37:30;11.20;99.90
9998;DHT22;5038;53.064;8.624;2024-02-14T11:39:59;11.20;99.90
9998;DHT22;5038;53.064;8.624;2024-02-14T11:42:28;11.20;99.90
9998;DHT22;5038;53.064;8.624;2024-02-14T11:44:58;11.20;99.90
9998;DHT22;5038;53.064;8.624;2024-02-14T11:47:26;11.20;99.90
9998;DHT22;5038;53.064;8.624;2024-02-14T11:49:55;11.20;99.90
9998;DHT22;5038;53.064;8.624;2024-02-14T11:52:25;11.20;99.90
9998;DHT22;5038;53.064;8.624;2024-02-14T11:54:55;11.30;99.90
9998;DHT22;5038;53.064;8.624;2024-02-14T11:57:26;11.30;99.90
9998;DHT22;5038;53.064;8.624;2024-02-14T11:59:57;11.30;99.90
9998;DHT22;5038;53.064;8.624;2024-02-14T12:02:25;11.30;99.90
9998;DHT22;5038;53.064;8.624;2024-02-14T12:04:54;11.30;99.90
9998;DHT22;5038;53.064;8.624;2024-02-14T12:07:23;11.30;99.90
9998;DHT22;5038;53.064;8.624;2024-02-14T12:09:52;11.30;99.90
9998;DHT22;5038;53.064;8.624;2024-02-14T12:12:24;11.30;99.90
9998;DHT22;5038;53.064;8.624;2024-02-14T12:14:52;11.30;99.90
9998;DHT22;5038;53.064;8.624;2024-02-14T12:17:21;11.30;99.90
9998;DHT22;5038;53.064;8.624;2024-02-14T12:19:49;11.30;99.90
9998;DHT22;5038;53.064;8.624;2024-02-14T12:22:19;11.40;99.90
9998;DHT22;5038;53.064;8.624;2024-02-14T12:24:48;11.40;99.90
9998;DHT22;5038;53.064;8.624;2024-02-14T12:27:17;11.40;99.90
9998;DHT22;5038;53.064;8.624;2024-02-14T12:29:48;11.40;99.90
9998;DHT22;5038;53.064;8.624;2024-02-14T12:32:16;11.40;99.90
9998;DHT22;5038;53.064;8.624;2024-02-14T12:34:45;11.40;99.90
9998;DHT22;5038;53.064;8.624;2024-02-14T12:37:13;11.40;99.90
9998;DHT22;5038;53.064;8.624;2024-02-14T12:39:42;11.40;99.90
9998;DHT22;5038;53.064;8.624;2024-02-14T12:42:10;11.40;99.90
9998;DHT22;5038;53.064;8.624;2024-02-14T12:44:38;11.40;99.90
9998;DHT22;5038;53.064;8.624;2024-02-14T12:47:08;11.50;99.90
9998;DHT22;5038;53.064;8.624;2024-02-14T12:49:37;11.50;99.90
9998;DHT22;5038;53.064;8.624;2024-02-14T12:52:05;11.50;99.90
9998;DHT22;5038;53.064;8.624;2024-02-14T12:54:34;11.50;99.90
9998;DHT22;5038;53.064;8.624;2024-02-14T12:57:02;11.50;99.90
9998;DHT22;5038;53.064;8.624;2024-02-14T12:59:31;11.50;99.90
9998;DHT22;5038;53.064;8.624;2024-02-14T13:01:59;11.60;99.90
9998;DHT22;5038;53.064;8.624;2024-02-14T13:04:29;11.60;99.90
9998;DHT22;5038;53.064;8.624;2024-02-14T13:06:58;11.60;99.90
9998;DHT22;5038;53.064;8.624;2024-02-14T13:09:27;11.60;99.90
9998;DHT22;5038;53.064;8.624;2024-02-14T13:11:56;11.60;99.90
9998;DHT22;5038;53.064;8.624;2024-02-14T13:14:24;11.60;99.90
9998;DHT22;5038;53.064;8.624;2024-02-14T13:16:53;11.60;99.90
9998;DHT22;5038;53.064;8.624;2024-02-14T13:19:21;11.60;99.90
9998;DHT22;5038;53.064;8.624;2024-02-14T13:21:52;11.60;99.90
9998;DHT22;5038;53.064;8.624;2024-02-14T13:24:20;11.70;99.90
9998;DHT22;5038;53.064;8.624;2024-02-14T13:26:48;11.70;99.90
9998;DHT22;5038;53.064;8.624;2024-02-14T13:29:17;11.70;99.90
9998;DHT22;5038;53.064;8.624;2024-02-14T13:31:46;11.70;99.90
9998;DHT22;5038;53.064;8.624;2024-02-14T13:34:15;11.70;99.90
9998;DHT22;5038;53.064;8.624;2024-02-14T13:36:43;11.70;99.90
9998;DHT22;5038;53.064;8.624;2024-02-14T13:39:13;11.70;99.90
9998;DHT22;5038;53.064;8.624;2024-02-14T13:41:41;11.80;99.90
9998;DHT22;5038;53.064;8.624;2024-02-14T13:44:11;11.80;99.90
9998;DHT22;5038;53.064;8.624;2024-02-14T13:46:43;11.80;99.90
9998;DHT22;5038;53.064;8.624;2024-02-14T13:49:12;11.80;99.90
9998;DHT22;5038;53.064;8.624;2024-02-14T13:51:45;11.80;99.90
9998;DHT22;5038;53.064;8.624;2024-02-14T13:54:15;11.80;99.90
9998;DHT22;5038;53.064;8.624;2024-02-14T13:56:43;11.80;99.90
9998;DHT22;5038;53.064;8.624;2024-02-14T13:59:11;11.80;99.90
9998;DHT22;5038;53.064;8.624;2024-02-14T14:01:40;11.80;99.90
9998;DHT22;5038;53.064;8.624;2024-02-14T14:04:08;11.80;99.90
9998;DHT22;5038;53.064;8.624;2024-02-14T14:06:36;11.80;99.90
9998;DHT22;5038;53.064;8.624;2024-02-14T14:09:06;11.90;99.90
9998;DHT22;5038;53.064;8.624;2024-02-14T14:11:38;11.90;99.90
9998;DHT22;5038;53.064;8.624;2024-02-14T14:14:06;11.90;99.90
9998;DHT22;5038;53.064;8.624;2024-02-14T14:16:38;11.90;99.90
9998;DHT22;5038;53.064;8.624;2024-02-14T14:19:06;11.90;99.90
9998;DHT22;5038;53.064;8.624;2024-02-14T14:21:35;12.00;99.90
9998;DHT22;5038;53.064;8.624;2024-02-14T14:24:05;12.00;99.90
9998;DHT22;5038;53.064;8.624;2024-02-14T14:26:33;12.00;99.90
9998;DHT22;5038;53.064;8.624;2024-02-14T14:29:03;12.00;99.90
9998;DHT22;5038;53.064;8.624;2024-02-14T14:31:32;12.00;99.90
9998;DHT22;5038;53.064;8.624;2024-02-14T14:34:02;12.00;99.90
9998;DHT22;5038;53.064;8.624;2024-02-14T14:36:31;12.00;99.90
9998;DHT22;5038;53.064;8.624;2024-02-14T14:39:00;12.00;99.90
9998;DHT22;5038;53.064;8.624;2024-02-14T14:41:28;12.00;99.90
9998;DHT22;5038;53.064;8.624;2024-02-14T14:43:58;12.10;99.90
9998;DHT22;5038;53.064;8.624;2024-02-14T14:46:27;12.00;99.90
9998;DHT22;5038;53.064;8.624;2024-02-14T14:48:57;12.10;99.90
9998;DHT22;5038;53.064;8.624;2024-02-14T14:51:26;12.00;99.90
9998;DHT22;5038;53.064;8.624;2024-02-14T14:53:54;12.00;99.90
9998;DHT22;5038;53.064;8.624;2024-02-14T14:56:23;12.00;99.90
9998;DHT22;5038;53.064;8.624;2024-02-14T14:58:53;12.10;99.90
9998;DHT22;5038;53.064;8.624;2024-02-14T15:01:21;12.10;99.90
9998;DHT22;5038;53.064;8.624;2024-02-14T15:03:51;12.10;99.90
9998;DHT22;5038;53.064;8.624;2024-02-14T15:06:20;12.00;99.90
9998;DHT22;5038;53.064;8.624;2024-02-14T15:08:49;12.00;99.90
9998;DHT22;5038;53.064;8.624;2024-02-14T15:11:17;12.00;99.90
9998;DHT22;5038;53.064;8.624;2024-02-14T15:13:48;12.00;99.90
9998;DHT22;5038;53.064;8.624;2024-02-14T15:16:16;12.00;99.90
9998;DHT22;5038;53.064;8.624;2024-02-14T15:18:44;12.00;99.90
9998;DHT22;5038;53.064;8.624;2024-02-14T15:21:14;12.00;99.90
9998;DHT22;5038;53.064;8.624;2024-02-14T15:23:43;12.00;99.90
9998;DHT22;5038;53.064;8.624;2024-02-14T15:26:11;11.90;99.90
9998;DHT22;5038;53.064;8.624;2024-02-14T15:28:42;11.90;99.90
9998;DHT22;5038;53.064;8.624;2024-02-14T15:31:12;11.90;99.90
9998;DHT22;5038;53.064;8.624;2024-02-14T15:34:12;11.90;99.90
9998;DHT22;5038;53.064;8.624;2024-02-14T15:36:42;11.90;99.90
9998;DHT22;5038;53.064;8.624;2024-02-14T15:39:10;11.90;99.90
9998;DHT22;5038;53.064;8.624;2024-02-14T15:41:40;11.90;99.90
9998;DHT22;5038;53.064;8.624;2024-02-14T15:44:08;11.90;99.90
9998;DHT22;5038;53.064;8.624;2024-02-14T15:46:37;11.90;99.90
9998;DHT22;5038;53.064;8.624;2024-02-14T15:49:05;11.90;99.90
9998;DHT22;5038;53.064;8.624;2024-02-14T15:51:38;11.80;99.90
9998;DHT22;5038;53.064;8.624;2024-02-14T15:54:08;11.90;99.90
9998;DHT22;5038;53.064;8.624;2024-02-14T15:56:37;11.80;99.90
9998;DHT22;5038;53.064;8.624;2024-02-14T15:59:05;11.80;99.90
9998;DHT22;5038;53.064;8.624;2024-02-14T16:01:33;11.80;99.90
9998;DHT22;5038;53.064;8.624;2024-02-14T16:04:02;11.80;99.90
9998;DHT22;5038;53.064;8.624;2024-02-14T16:06:31;11.80;99.90
9998;DHT22;5038;53.064;8.624;2024-02-14T16:09:02;11.80;99.90
9998;DHT22;5038;53.064;8.624;2024-02-14T16:11:32;11.80;99.90
9998;DHT22;5038;53.064;8.624;2024-02-14T16:14:00;11.80;99.90
9998;DHT22;5038;53.064;8.624;2024-02-14T16:16:28;11.80;99.90
9998;DHT22;5038;53.064;8.624;2024-02-14T16:18:58;11.80;99.90
9998;DHT22;5038;53.064;8.624;2024-02-14T16:21:27;11.80;99.90